createdAt,value
2018-11-13T07:26:43.911Z,1014.90
2018-11-13T07:27:44.029Z,1014.88
2018-11-13T07:30:39.800Z,1014.96
2018-11-13T07:31:39.868Z,1015.02
2018-11-13T07:34:35.848Z,1015.00
2018-11-13T07:35:35.071Z,1015.08
2018-11-13T07:38:28.950Z,1015.06
2018-11-13T07:39:30.598Z,1015.10
2018-11-13T07:42:23.680Z,1015.08
2018-11-13T07:43:24.033Z,1015.10
2018-11-13T07:46:18.560Z,1015.14
2018-11-13T07:47:18.951Z,1015.20
2018-11-13T07:50:14.558Z,1015.14
2018-11-13T07:51:14.796Z,1015.16
2018-11-13T07:54:13.998Z,1015.27
2018-11-13T07:55:12.466Z,1015.24
2018-11-13T07:56:13.941Z,1015.22
2018-11-13T07:57:13.408Z,1015.18
2018-11-13T07:58:14.090Z,1015.09
2018-11-13T07:59:14.703Z,1015.04
2018-11-13T08:00:15.795Z,1015.07
2018-11-13T08:01:16.310Z,1015.08
2018-11-13T08:02:16.857Z,1015.05
2018-11-13T08:03:17.708Z,1015.06
2018-11-13T08:04:18.307Z,1015.04
2018-11-13T08:05:18.855Z,1015.04
2018-11-13T08:06:19.558Z,1015.03
2018-11-13T08:07:20.242Z,1015.03
2018-11-13T08:08:20.798Z,1015.03
2018-11-13T08:09:21.551Z,1015.03
2018-11-13T08:10:22.208Z,1014.97
2018-11-13T08:11:22.858Z,1015.01
2018-11-13T08:12:23.415Z,1015.01
2018-11-13T08:13:24.115Z,1015.03
2018-11-13T08:14:24.707Z,1015.09
2018-11-13T08:15:25.426Z,1015.08
2018-11-13T08:16:26.047Z,1015.09
2018-11-13T08:17:26.705Z,1015.16
2018-11-13T08:18:27.324Z,1015.17
2018-11-13T08:19:27.976Z,1015.20
2018-11-13T08:20:28.625Z,1015.17
2018-11-13T08:21:29.456Z,1015.26
2018-11-13T08:22:29.921Z,1015.19
2018-11-13T08:23:30.610Z,1015.26
2018-11-13T08:24:31.224Z,1015.26
2018-11-13T08:25:31.973Z,1015.28
2018-11-13T08:26:32.582Z,1015.32
2018-11-13T08:27:33.200Z,1015.31
2018-11-13T08:28:33.870Z,1015.31
2018-11-13T08:29:34.554Z,1015.32
2018-11-13T08:30:35.143Z,1015.37
2018-11-13T08:31:35.798Z,1015.33
2018-11-13T08:32:36.458Z,1015.41
2018-11-13T08:33:37.111Z,1015.29
2018-11-13T08:34:37.769Z,1015.36
2018-11-13T08:35:38.557Z,1015.35
2018-11-13T08:36:39.079Z,1015.36
2018-11-13T08:37:39.734Z,1015.37
2018-11-13T08:38:40.364Z,1015.34
2018-11-13T08:39:41.062Z,1015.35
2018-11-13T08:40:41.698Z,1015.46
2018-11-13T08:41:42.295Z,1015.44
2018-11-13T08:42:42.949Z,1015.40
2018-11-13T08:43:43.672Z,1015.48
2018-11-13T08:44:44.260Z,1015.51
2018-11-13T08:45:44.909Z,1015.49
2018-11-13T08:46:45.658Z,1015.53
2018-11-13T08:47:46.213Z,1015.59
2018-11-13T08:48:46.903Z,1015.61
2018-11-13T08:49:47.529Z,1015.75
2018-11-13T08:50:48.264Z,1015.62
2018-11-13T08:51:48.843Z,1015.58
2018-11-13T08:52:49.657Z,1015.65
2018-11-13T08:53:50.317Z,1015.66
2018-11-13T08:54:50.963Z,1015.83
2018-11-13T08:55:51.622Z,1015.67
2018-11-13T08:56:52.289Z,1015.74
2018-11-13T08:57:52.939Z,1015.65
2018-11-13T08:58:53.734Z,1015.72
2018-11-13T08:59:54.307Z,1015.77
2018-11-13T09:00:54.916Z,1015.65
2018-11-13T09:01:55.582Z,1015.83
2018-11-13T09:02:56.224Z,1015.72
2018-11-13T09:03:56.879Z,1015.77
2018-11-13T09:04:57.560Z,1015.81
2018-11-13T09:05:58.177Z,1015.86
2018-11-13T09:06:58.837Z,1015.96
2018-11-13T09:07:59.488Z,1015.96
2018-11-13T09:09:00.144Z,1015.92
2018-11-13T09:10:00.809Z,1015.92
2018-11-13T09:11:01.461Z,1015.98
2018-11-13T09:12:02.561Z,1015.85
2018-11-13T09:13:02.766Z,1016.04
2018-11-13T09:14:03.425Z,1015.93
2018-11-13T09:15:04.085Z,1015.86
2018-11-13T09:16:04.798Z,1015.92
2018-11-13T09:17:05.432Z,1015.93
2018-11-13T09:18:06.044Z,1015.90
2018-11-13T09:19:06.900Z,1015.91
2018-11-13T09:20:07.440Z,1015.92
2018-11-13T09:21:07.998Z,1015.94
2018-11-13T09:22:08.640Z,1015.95
2018-11-13T09:23:09.298Z,1015.90
2018-11-13T09:24:09.960Z,1015.89
2018-11-13T09:25:10.630Z,1015.92
2018-11-13T09:26:11.256Z,1015.80
2018-11-13T09:27:11.913Z,1015.89
2018-11-13T09:28:12.601Z,1015.95
2018-11-13T09:29:13.205Z,1016.00
2018-11-13T09:30:14.075Z,1015.98
2018-11-13T09:31:14.539Z,1016.04
2018-11-13T09:32:15.232Z,1016.08
2018-11-13T09:33:15.811Z,1016.03
2018-11-13T09:34:16.461Z,1016.01
2018-11-13T09:35:17.248Z,1016.01
2018-11-13T09:36:17.790Z,1015.99
2018-11-13T09:37:18.490Z,1016.05
2018-11-13T09:38:19.131Z,1016.08
2018-11-13T09:39:19.855Z,1016.03
2018-11-13T09:40:20.489Z,1016.05
2018-11-13T09:41:21.191Z,1016.03
2018-11-13T09:42:21.831Z,1016.00
2018-11-13T09:43:22.495Z,1016.01
2018-11-13T09:44:23.306Z,1015.99
2018-11-13T09:45:23.952Z,1016.01
2018-11-13T09:46:24.666Z,1015.97
2018-11-13T09:47:25.273Z,1015.92
2018-11-13T09:48:25.930Z,1015.91
2018-11-13T09:49:26.589Z,1015.94
2018-11-13T09:50:27.334Z,1015.97
2018-11-13T09:51:27.910Z,1016.05
2018-11-13T09:52:28.573Z,1015.93
2018-11-13T09:53:29.247Z,1015.96
2018-11-13T09:54:29.974Z,1015.98
2018-11-13T09:55:30.662Z,1015.91
2018-11-13T09:56:31.321Z,1016.05
2018-11-13T09:57:31.957Z,1016.00
2018-11-13T09:58:32.649Z,1016.08
2018-11-13T09:59:33.240Z,1016.05
2018-11-13T10:00:34.068Z,1016.16
2018-11-13T10:01:34.909Z,1016.26
2018-11-13T10:02:35.873Z,1016.13
2018-11-13T10:03:36.630Z,1016.16
2018-11-13T10:04:37.215Z,1016.10
2018-11-13T10:05:37.306Z,1016.16
2018-11-13T10:06:37.874Z,1016.09
2018-11-13T10:07:38.540Z,1016.13
2018-11-13T10:08:39.203Z,1016.13
2018-11-13T10:09:39.860Z,1016.08
2018-11-13T10:10:40.549Z,1016.10
2018-11-13T10:11:41.153Z,1016.12
2018-11-13T10:12:41.803Z,1016.06
2018-11-13T10:13:42.455Z,1016.08
2018-11-13T10:14:43.112Z,1016.20
2018-11-13T10:15:43.771Z,1016.10
2018-11-13T10:16:44.417Z,1016.03
2018-11-13T10:17:45.198Z,1016.13
2018-11-13T10:18:45.775Z,1016.11
2018-11-13T10:19:46.374Z,1016.03
2018-11-13T10:20:47.117Z,1016.04
2018-11-13T10:21:47.780Z,1016.08
2018-11-13T10:22:48.436Z,1016.17
2018-11-13T10:23:49.093Z,1016.08
2018-11-13T10:24:49.759Z,1016.17
2018-11-13T10:25:50.405Z,1016.10
2018-11-13T10:26:51.283Z,1016.12
2018-11-13T10:27:51.838Z,1016.21
2018-11-13T10:28:52.430Z,1016.04
2018-11-13T10:29:53.156Z,1016.14
2018-11-13T10:30:53.763Z,1016.11
2018-11-13T10:31:54.423Z,1016.20
2018-11-13T10:32:55.080Z,1016.16
2018-11-13T10:33:55.722Z,1016.19
2018-11-13T10:34:56.381Z,1016.20
2018-11-13T10:35:57.055Z,1016.10
2018-11-13T10:36:57.702Z,1016.11
2018-11-13T10:37:58.373Z,1016.12
2018-11-13T10:38:59.070Z,1016.14
2018-11-13T10:39:59.748Z,1016.19
2018-11-13T10:41:00.425Z,1016.18
2018-11-13T10:42:01.028Z,1016.13
2018-11-13T10:43:01.684Z,1016.15
2018-11-13T10:44:02.353Z,1016.13
2018-11-13T10:45:02.994Z,1016.11
2018-11-13T10:46:03.647Z,1016.07
2018-11-13T10:47:04.307Z,1016.12
2018-11-13T10:48:04.965Z,1016.05
2018-11-13T10:49:05.755Z,1016.16
2018-11-13T10:50:06.271Z,1016.16
2018-11-13T10:51:06.917Z,1016.16
2018-11-13T10:52:07.638Z,1016.12
2018-11-13T10:53:08.278Z,1016.09
2018-11-13T10:54:08.997Z,1016.10
2018-11-13T10:55:09.645Z,1016.12
2018-11-13T10:56:10.298Z,1016.18
2018-11-13T10:57:10.961Z,1016.12
2018-11-13T10:58:11.614Z,1016.15
2018-11-13T10:59:12.408Z,1016.20
2018-11-13T11:00:12.941Z,1016.16
2018-11-13T11:01:13.563Z,1016.17
2018-11-13T11:02:14.283Z,1016.16
2018-11-13T11:03:14.881Z,1016.15
2018-11-13T11:04:15.579Z,1016.13
2018-11-13T11:05:16.249Z,1016.17
2018-11-13T11:06:16.947Z,1016.11
2018-11-13T11:07:17.552Z,1016.15
2018-11-13T11:08:18.290Z,1016.13
2018-11-13T11:09:18.998Z,1016.10
2018-11-13T11:10:19.610Z,1016.16
2018-11-13T11:11:20.266Z,1016.12
2018-11-13T11:12:20.892Z,1016.10
2018-11-13T11:13:21.754Z,1016.10
2018-11-13T11:14:22.148Z,1016.11
2018-11-13T11:15:22.804Z,1016.16
2018-11-13T11:16:23.464Z,1016.10
2018-11-13T11:17:24.136Z,1016.13
2018-11-13T11:18:24.784Z,1016.10
2018-11-13T11:19:25.588Z,1016.20
2018-11-13T11:20:26.106Z,1016.14
2018-11-13T11:21:26.761Z,1016.36
2018-11-13T11:22:27.417Z,1016.24
2018-11-13T11:23:28.213Z,1016.28
2018-11-13T11:27:35.171Z,1016.40
2018-11-13T11:31:27.146Z,1016.43
2018-11-13T11:32:29.489Z,1016.44
2018-11-13T11:35:24.466Z,1016.63
2018-11-13T11:39:19.832Z,1016.64
2018-11-13T11:43:12.218Z,1016.67
2018-11-13T11:44:13.631Z,1016.76
2018-11-13T11:47:10.171Z,1016.75
2018-11-13T11:51:03.455Z,1016.77
2018-11-13T11:54:56.588Z,1016.92
2018-11-13T11:55:58.056Z,1016.96
2018-11-13T11:59:53.108Z,1016.84
2018-11-13T12:02:46.958Z,1016.87
2018-11-13T12:03:47.860Z,1016.91
2018-11-13T12:04:47.464Z,1016.86
2018-11-13T12:05:46.394Z,1016.89
2018-11-13T12:06:49.267Z,1016.89
2018-11-13T12:07:46.967Z,1016.84
2018-11-13T12:08:47.553Z,1016.88
2018-11-13T12:09:48.134Z,1016.86
2018-11-13T12:10:48.879Z,1016.89
2018-11-13T12:11:49.479Z,1016.85
2018-11-13T12:12:50.275Z,1016.90
2018-11-13T12:13:50.812Z,1016.84
2018-11-13T12:14:51.478Z,1016.86
2018-11-13T12:15:52.208Z,1016.92
2018-11-13T12:16:52.799Z,1016.92
2018-11-13T12:17:53.433Z,1016.92
2018-11-13T12:18:54.171Z,1016.89
2018-11-13T12:19:54.756Z,1016.89
2018-11-13T12:20:55.495Z,1016.90
2018-11-13T12:21:56.104Z,1016.95
2018-11-13T12:22:56.759Z,1016.92
2018-11-13T12:23:57.351Z,1016.97
2018-11-13T12:24:58.034Z,1016.94
2018-11-13T12:25:58.774Z,1017.02
2018-11-13T12:26:59.476Z,1017.03
2018-11-13T12:28:00.103Z,1017.01
2018-11-13T12:29:00.723Z,1017.07
2018-11-13T12:30:01.366Z,1017.06
2018-11-13T12:31:02.000Z,1017.07
2018-11-13T12:32:02.829Z,1017.14
2018-11-13T12:33:03.319Z,1017.15
2018-11-13T12:34:04.010Z,1017.17
2018-11-13T12:35:04.684Z,1017.16
2018-11-13T12:36:05.313Z,1017.20
2018-11-13T12:37:06.043Z,1017.18
2018-11-13T12:38:06.683Z,1017.27
2018-11-13T12:39:09.114Z,1017.16
2018-11-13T12:40:09.768Z,1017.31
2018-11-13T12:41:10.437Z,1017.19
2018-11-13T12:42:11.085Z,1017.27
2018-11-13T12:43:11.729Z,1017.23
2018-11-13T12:44:12.383Z,1017.21
2018-11-13T12:45:14.661Z,1017.23
2018-11-13T12:46:15.318Z,1017.28
2018-11-13T12:47:15.963Z,1017.23
2018-11-13T12:48:16.556Z,1017.20
2018-11-13T12:49:17.280Z,1017.28
2018-11-13T12:50:17.927Z,1017.20
2018-11-13T12:51:18.504Z,1017.28
2018-11-13T12:52:19.151Z,1017.29
2018-11-13T12:53:19.807Z,1017.30
2018-11-13T12:54:20.454Z,1017.28
2018-11-13T12:55:21.163Z,1017.33
2018-11-13T12:56:21.876Z,1017.27
2018-11-13T12:57:22.560Z,1017.31
2018-11-13T12:58:23.092Z,1017.36
2018-11-13T12:59:23.806Z,1017.34
2018-11-13T13:00:24.386Z,1017.34
2018-11-13T13:01:25.109Z,1017.33
2018-11-13T13:02:25.708Z,1017.31
2018-11-13T13:03:26.384Z,1017.35
2018-11-13T13:04:26.996Z,1017.54
2018-11-13T13:05:27.729Z,1017.36
2018-11-13T13:06:28.293Z,1017.36
2018-11-13T13:07:29.000Z,1017.35
2018-11-13T13:08:29.646Z,1017.43
2018-11-13T13:09:30.278Z,1017.32
2018-11-13T13:10:30.960Z,1017.47
2018-11-13T13:11:31.620Z,1017.42
2018-11-13T13:12:32.293Z,1017.38
2018-11-13T13:13:32.913Z,1017.41
2018-11-13T13:14:33.612Z,1017.44
2018-11-13T13:15:34.151Z,1017.45
2018-11-13T13:16:34.856Z,1017.45
2018-11-13T13:17:35.467Z,1017.41
2018-11-13T13:18:36.182Z,1017.53
2018-11-13T13:19:36.775Z,1017.41
2018-11-13T13:20:37.473Z,1017.46
2018-11-13T13:21:38.129Z,1017.43
2018-11-13T13:22:38.729Z,1017.51
2018-11-13T13:23:39.433Z,1017.42
2018-11-13T13:24:40.041Z,1017.47
2018-11-13T13:25:40.719Z,1017.46
2018-11-13T13:26:41.347Z,1017.47
2018-11-13T13:27:42.050Z,1017.42
2018-11-13T13:28:42.650Z,1017.51
2018-11-13T13:29:43.299Z,1017.48
2018-11-13T13:30:44.053Z,1017.50
2018-11-13T13:31:44.625Z,1017.44
2018-11-13T13:32:45.249Z,1017.46
2018-11-13T13:33:46.000Z,1017.42
2018-11-13T13:34:46.558Z,1017.46
2018-11-13T13:35:47.275Z,1017.47
2018-11-13T13:36:47.996Z,1017.50
2018-11-13T13:37:48.597Z,1017.57
2018-11-13T13:38:49.354Z,1017.50
2018-11-13T13:39:50.008Z,1017.53
2018-11-13T13:40:50.544Z,1017.55
2018-11-13T13:41:51.333Z,1017.63
2018-11-13T13:42:51.863Z,1017.57
2018-11-13T13:43:52.508Z,1017.70
2018-11-13T13:44:53.899Z,1017.65
2018-11-13T13:45:54.115Z,1017.64
2018-11-13T13:46:54.618Z,1017.70
2018-11-13T13:47:55.220Z,1017.63
2018-11-13T13:48:55.893Z,1017.71
2018-11-13T13:49:56.536Z,1017.82
2018-11-13T13:50:57.220Z,1017.75
2018-11-13T13:51:57.865Z,1017.79
2018-11-13T13:52:58.486Z,1017.78
2018-11-13T13:53:59.252Z,1017.78
2018-11-13T13:54:59.800Z,1017.75
2018-11-13T13:56:00.496Z,1017.76
2018-11-13T13:57:01.090Z,1017.76
2018-11-13T13:58:01.745Z,1017.73
2018-11-13T13:59:02.435Z,1017.76
2018-11-13T14:00:03.216Z,1017.70
2018-11-13T14:01:03.814Z,1017.76
2018-11-13T14:02:04.357Z,1017.81
2018-11-13T14:03:04.997Z,1017.80
2018-11-13T14:04:05.651Z,1017.76
2018-11-13T14:05:06.381Z,1017.80
2018-11-13T14:06:06.970Z,1017.84
2018-11-13T14:07:07.603Z,1017.81
2018-11-13T14:08:08.279Z,1017.81
2018-11-13T14:09:08.997Z,1017.83
2018-11-13T14:10:09.592Z,1017.89
2018-11-13T14:11:10.194Z,1017.92
2018-11-13T14:12:10.843Z,1017.89
2018-11-13T14:13:11.500Z,1017.88
2018-11-13T14:14:12.160Z,1017.94
2018-11-13T14:15:12.827Z,1017.96
2018-11-13T14:16:13.461Z,1017.97
2018-11-13T14:17:14.839Z,1017.94
2018-11-13T14:18:15.606Z,1018.03
2018-11-13T14:19:15.580Z,1017.95
2018-11-13T14:20:16.469Z,1017.85
2018-11-13T14:21:16.901Z,1017.94
2018-11-13T14:22:17.510Z,1018.01
2018-11-13T14:23:18.220Z,1018.05
2018-11-13T14:24:19.022Z,1018.07
2018-11-13T14:25:19.524Z,1018.03
2018-11-13T14:26:20.191Z,1018.07
2018-11-13T14:27:20.827Z,1018.10
2018-11-13T14:28:21.514Z,1018.08
2018-11-13T14:29:22.127Z,1018.14
2018-11-13T14:30:22.893Z,1018.24
2018-11-13T14:31:23.440Z,1018.25
2018-11-13T14:32:24.099Z,1018.12
2018-11-13T14:33:24.781Z,1018.20
2018-11-13T14:34:25.431Z,1018.19
2018-11-13T14:35:26.106Z,1018.18
2018-11-13T14:36:26.731Z,1018.18
2018-11-13T14:37:27.380Z,1018.25
2018-11-13T14:38:28.016Z,1018.21
2018-11-13T14:39:28.672Z,1018.23
2018-11-13T14:40:29.322Z,1018.31
2018-11-13T14:41:29.963Z,1018.32
2018-11-13T14:42:30.636Z,1018.28
2018-11-13T14:43:31.280Z,1018.34
2018-11-13T14:44:32.013Z,1018.35
2018-11-13T14:45:32.564Z,1018.39
2018-11-13T14:46:36.204Z,1018.40
2018-11-13T14:47:36.783Z,1018.45
2018-11-13T14:48:37.435Z,1018.58
2018-11-13T14:49:38.090Z,1018.52
2018-11-13T14:50:38.751Z,1018.52
2018-11-13T14:51:39.421Z,1018.51
2018-11-13T14:52:40.063Z,1018.55
2018-11-13T14:53:40.771Z,1018.49
2018-11-13T14:54:41.384Z,1018.52
2018-11-13T14:55:42.102Z,1018.58
2018-11-13T14:56:42.696Z,1018.61
2018-11-13T14:57:43.342Z,1018.61
2018-11-13T14:58:43.989Z,1018.57
2018-11-13T14:59:44.643Z,1018.67
2018-11-13T15:00:45.329Z,1018.68
2018-11-13T15:01:45.993Z,1018.68
2018-11-13T15:02:46.659Z,1018.70
2018-11-13T15:03:47.237Z,1018.69
2018-11-13T15:04:47.916Z,1018.74
2018-11-13T15:05:48.546Z,1018.73
2018-11-13T15:06:49.215Z,1018.72
2018-11-13T15:07:49.891Z,1018.76
2018-11-13T15:08:50.498Z,1018.77
2018-11-13T15:09:51.150Z,1018.83
2018-11-13T15:10:51.841Z,1018.82
2018-11-13T15:11:52.478Z,1018.85
2018-11-13T15:12:53.131Z,1018.99
2018-11-13T15:13:53.788Z,1018.91
2018-11-13T15:14:54.427Z,1018.95
2018-11-13T15:15:55.083Z,1018.93
2018-11-13T15:16:55.775Z,1018.99
2018-11-13T15:17:56.384Z,1019.03
2018-11-13T15:18:57.037Z,1019.08
2018-11-13T15:19:57.734Z,1019.12
2018-11-13T15:20:58.352Z,1019.10
2018-11-13T15:21:58.990Z,1019.12
2018-11-13T15:22:59.648Z,1019.12
2018-11-13T15:24:00.280Z,1019.09
2018-11-13T15:25:00.939Z,1019.11
2018-11-13T15:26:01.593Z,1019.16
2018-11-13T15:27:02.244Z,1019.16
2018-11-13T15:28:02.927Z,1019.15
2018-11-13T15:29:03.535Z,1019.14
2018-11-13T15:30:04.191Z,1019.22
2018-11-13T15:31:05.560Z,1019.25
2018-11-13T15:32:05.494Z,1019.27
2018-11-13T15:33:06.145Z,1019.33
2018-11-13T15:34:06.911Z,1019.33
2018-11-13T15:35:07.504Z,1019.33
2018-11-13T15:36:08.164Z,1019.35
2018-11-13T15:37:09.048Z,1019.37
2018-11-13T15:38:09.469Z,1019.40
2018-11-13T15:39:10.125Z,1019.43
2018-11-13T15:40:10.781Z,1019.37
2018-11-13T15:41:11.435Z,1019.38
2018-11-13T15:42:12.094Z,1019.40
2018-11-13T15:43:12.745Z,1019.46
2018-11-13T15:44:13.405Z,1019.45
2018-11-13T15:45:14.151Z,1019.43
2018-11-13T15:46:14.715Z,1019.41
2018-11-13T15:47:15.496Z,1019.39
2018-11-13T15:48:16.065Z,1019.41
2018-11-13T15:49:16.752Z,1019.44
2018-11-13T15:50:17.465Z,1019.41
2018-11-13T15:51:18.053Z,1019.42
2018-11-13T15:52:18.876Z,1019.46
2018-11-13T15:53:19.337Z,1019.44
2018-11-13T15:54:19.988Z,1019.46
2018-11-13T15:55:20.645Z,1019.48
2018-11-13T15:56:21.333Z,1019.45
2018-11-13T15:57:21.960Z,1019.51
2018-11-13T15:58:22.649Z,1019.51
2018-11-13T15:59:23.272Z,1019.47
2018-11-13T16:00:23.925Z,1019.59
2018-11-13T16:01:24.601Z,1019.57
2018-11-13T16:02:25.235Z,1019.59
2018-11-13T16:03:25.917Z,1019.60
2018-11-13T16:04:26.526Z,1019.63
2018-11-13T16:05:30.163Z,1019.67
2018-11-13T16:06:30.896Z,1019.70
2018-11-13T16:07:32.459Z,1019.70
2018-11-13T16:08:32.350Z,1019.70
2018-11-13T16:09:33.097Z,1019.74
2018-11-13T16:10:33.694Z,1019.78
2018-11-13T16:11:34.296Z,1019.74
2018-11-13T16:12:34.987Z,1019.80
2018-11-13T16:13:35.584Z,1019.83
2018-11-13T16:14:36.275Z,1019.82
2018-11-13T16:15:36.905Z,1019.84
2018-11-13T16:19:43.637Z,1019.92
2018-11-13T16:23:38.559Z,1019.97
2018-11-13T16:24:39.318Z,1019.99
2018-11-13T16:27:34.298Z,1020.06
2018-11-13T16:28:34.209Z,1020.04
2018-11-13T16:31:27.760Z,1020.03
2018-11-13T16:32:29.569Z,1020.03
2018-11-13T16:35:22.353Z,1020.13
2018-11-13T16:36:22.113Z,1020.14
2018-11-13T16:39:18.088Z,1020.20
2018-11-13T16:40:18.601Z,1020.22
2018-11-13T16:41:18.705Z,1020.20
2018-11-13T16:42:20.660Z,1020.19
2018-11-13T16:43:18.062Z,1020.27
2018-11-13T16:44:18.592Z,1020.33
2018-11-13T16:45:19.261Z,1020.29
2018-11-13T16:46:19.901Z,1020.29
2018-11-13T16:47:20.580Z,1020.28
2018-11-13T16:48:21.350Z,1020.29
2018-11-13T16:49:21.891Z,1020.32
2018-11-13T16:50:22.541Z,1020.33
2018-11-13T16:51:23.269Z,1020.31
2018-11-13T16:52:23.861Z,1020.29
2018-11-13T16:53:24.513Z,1020.28
2018-11-13T16:54:25.177Z,1020.28
2018-11-13T16:55:25.816Z,1020.31
2018-11-13T16:56:26.637Z,1020.28
2018-11-13T16:57:27.133Z,1020.33
2018-11-13T16:58:27.850Z,1020.26
2018-11-13T16:59:28.442Z,1020.33
2018-11-13T17:00:29.272Z,1020.29
2018-11-13T17:01:29.741Z,1020.31
2018-11-13T17:02:30.453Z,1020.29
2018-11-13T17:03:31.112Z,1020.35
2018-11-13T17:04:31.728Z,1020.33
2018-11-13T17:05:32.490Z,1020.40
2018-11-13T17:06:33.015Z,1020.37
2018-11-13T17:07:33.631Z,1020.38
2018-11-13T17:08:34.285Z,1020.39
2018-11-13T17:09:34.925Z,1020.43
2018-11-13T17:10:35.584Z,1020.46
2018-11-13T17:11:36.298Z,1020.46
2018-11-13T17:12:36.901Z,1020.43
2018-11-13T17:13:37.569Z,1020.47
2018-11-13T17:14:38.585Z,1020.43
2018-11-13T17:15:38.872Z,1020.45
2018-11-13T17:16:39.536Z,1020.50
2018-11-13T17:17:40.222Z,1020.50
2018-11-13T17:18:40.881Z,1020.52
2018-11-13T17:19:41.673Z,1020.53
2018-11-13T17:20:42.143Z,1020.57
2018-11-13T17:21:42.817Z,1020.55
2018-11-13T17:22:43.580Z,1020.58
2018-11-13T17:23:44.207Z,1020.63
2018-11-13T17:24:44.774Z,1020.62
2018-11-13T17:25:45.463Z,1020.60
2018-11-13T17:26:46.075Z,1020.67
2018-11-13T17:27:46.740Z,1020.67
2018-11-13T17:28:47.437Z,1020.65
2018-11-13T17:29:48.074Z,1020.67
2018-11-13T17:30:48.724Z,1020.69
2018-11-13T17:31:49.359Z,1020.69
2018-11-13T17:32:50.012Z,1020.70
2018-11-13T17:33:50.633Z,1020.71
2018-11-13T17:34:51.285Z,1020.67
2018-11-13T17:35:51.944Z,1020.70
2018-11-13T17:36:52.599Z,1020.74
2018-11-13T17:37:53.323Z,1020.75
2018-11-13T17:38:53.971Z,1020.78
2018-11-13T17:39:54.631Z,1020.82
2018-11-13T17:40:55.227Z,1020.79
2018-11-13T17:41:55.882Z,1020.79
2018-11-13T17:42:56.541Z,1020.78
2018-11-13T17:43:57.209Z,1020.79
2018-11-13T17:44:57.848Z,1020.84
2018-11-13T17:45:58.498Z,1020.86
2018-11-13T17:46:59.180Z,1020.88
2018-11-13T17:47:59.887Z,1020.86
2018-11-13T17:49:00.467Z,1020.87
2018-11-13T17:50:01.177Z,1020.93
2018-11-13T17:51:01.857Z,1020.89
2018-11-13T17:52:02.438Z,1020.89
2018-11-13T17:53:03.056Z,1020.86
2018-11-13T17:54:03.724Z,1020.93
2018-11-13T17:55:04.362Z,1020.94
2018-11-13T17:56:05.025Z,1020.97
2018-11-13T17:57:05.674Z,1020.91
2018-11-13T17:58:06.336Z,1020.97
2018-11-13T17:59:06.994Z,1020.99
2018-11-13T18:00:07.700Z,1020.94
2018-11-13T18:01:08.301Z,1020.96
2018-11-13T18:02:09.240Z,1020.93
2018-11-13T18:03:09.599Z,1020.91
2018-11-13T18:04:10.241Z,1020.88
2018-11-13T18:05:10.899Z,1020.91
2018-11-13T18:06:11.545Z,1020.91
2018-11-13T18:07:12.201Z,1020.89
2018-11-13T18:08:12.841Z,1020.94
2018-11-13T18:09:13.486Z,1020.95
2018-11-13T18:10:14.280Z,1020.90
2018-11-13T18:11:16.772Z,1020.92
2018-11-13T18:12:17.468Z,1020.90
2018-11-13T18:13:18.051Z,1020.93
2018-11-13T18:14:18.775Z,1020.90
2018-11-13T18:15:19.489Z,1020.92
2018-11-13T18:16:20.228Z,1020.93
2018-11-13T18:17:20.767Z,1021.00
2018-11-13T18:18:21.453Z,1020.99
2018-11-13T18:19:22.049Z,1021.02
2018-11-13T18:20:22.697Z,1021.00
2018-11-13T18:21:23.524Z,1021.02
2018-11-13T18:22:24.198Z,1021.03
2018-11-13T18:23:24.857Z,1021.00
2018-11-13T18:24:25.502Z,1020.99
2018-11-13T18:25:26.021Z,1020.97
2018-11-13T18:26:26.690Z,1020.98
2018-11-13T18:27:27.292Z,1020.99
2018-11-13T18:28:28.117Z,1020.97
2018-11-13T18:29:28.586Z,1021.02
2018-11-13T18:30:29.329Z,1021.05
2018-11-13T18:31:29.897Z,1021.03
2018-11-13T18:32:30.555Z,1021.05
2018-11-13T18:33:31.238Z,1021.06
2018-11-13T18:34:31.888Z,1021.07
2018-11-13T18:35:32.545Z,1021.04
2018-11-13T18:36:33.360Z,1021.05
2018-11-13T18:37:33.912Z,1021.09
2018-11-13T18:38:34.613Z,1021.12
2018-11-13T18:39:35.181Z,1021.11
2018-11-13T18:40:35.802Z,1021.12
2018-11-13T18:41:36.460Z,1021.11
2018-11-13T18:42:37.094Z,1021.12
2018-11-13T18:43:37.748Z,1021.12
2018-11-13T18:44:38.457Z,1021.11
2018-11-13T18:45:39.091Z,1021.13
2018-11-13T18:46:39.745Z,1021.20
2018-11-13T18:47:40.418Z,1021.15
2018-11-13T18:48:41.075Z,1021.18
2018-11-13T18:49:41.740Z,1021.25
2018-11-13T18:50:42.346Z,1021.26
2018-11-13T18:51:43.045Z,1021.21
2018-11-13T18:52:43.649Z,1021.25
2018-11-13T18:53:44.286Z,1021.25
2018-11-13T18:54:44.952Z,1021.30
2018-11-13T18:55:45.685Z,1021.27
2018-11-13T18:56:46.352Z,1021.27
2018-11-13T18:57:46.889Z,1021.31
2018-11-13T18:58:47.591Z,1021.31
2018-11-13T18:59:48.298Z,1021.32
2018-11-13T19:00:49.077Z,1021.31
2018-11-13T19:01:49.514Z,1021.38
2018-11-13T19:02:50.213Z,1021.34
2018-11-13T19:03:50.811Z,1021.42
2018-11-13T19:04:51.646Z,1021.37
2018-11-13T19:05:52.174Z,1021.42
2018-11-13T19:06:52.792Z,1021.45
2018-11-13T19:07:53.448Z,1021.47
2018-11-13T19:08:54.135Z,1021.48
2018-11-13T19:09:54.716Z,1021.55
2018-11-13T19:10:55.437Z,1021.56
2018-11-13T19:11:56.064Z,1021.55
2018-11-13T19:12:56.905Z,1021.58
2018-11-13T19:13:57.418Z,1021.56
2018-11-13T19:14:58.034Z,1021.54
2018-11-13T19:15:58.740Z,1021.55
2018-11-13T19:16:59.356Z,1021.56
2018-11-13T19:18:00.121Z,1021.55
2018-11-13T19:19:00.620Z,1021.54
2018-11-13T19:20:01.401Z,1021.56
2018-11-13T19:21:01.968Z,1021.58
2018-11-13T19:22:02.571Z,1021.58
2018-11-13T19:23:03.227Z,1021.58
2018-11-13T19:24:03.899Z,1021.64
2018-11-13T19:25:04.770Z,1021.59
2018-11-13T19:26:05.183Z,1021.63
2018-11-13T19:27:05.841Z,1021.62
2018-11-13T19:28:06.503Z,1021.67
2018-11-13T19:29:07.174Z,1021.65
2018-11-13T19:30:07.849Z,1021.64
2018-11-13T19:31:08.587Z,1021.66
2018-11-13T19:32:09.129Z,1021.66
2018-11-13T19:33:09.829Z,1021.60
2018-11-13T19:34:10.650Z,1021.64
2018-11-13T19:35:11.402Z,1021.65
2018-11-13T19:36:12.134Z,1021.66
2018-11-13T19:37:12.678Z,1021.61
2018-11-13T19:38:13.310Z,1021.68
2018-11-13T19:39:13.951Z,1021.63
2018-11-13T19:40:14.784Z,1021.68
2018-11-13T19:41:15.244Z,1021.65
2018-11-13T19:42:15.933Z,1021.71
2018-11-13T19:43:16.616Z,1021.71
2018-11-13T19:44:17.229Z,1021.73
2018-11-13T19:45:18.038Z,1021.72
2018-11-13T19:46:18.531Z,1021.72
2018-11-13T19:47:19.181Z,1021.78
2018-11-13T19:48:19.868Z,1021.80
2018-11-13T19:49:20.680Z,1021.80
2018-11-13T19:50:21.251Z,1021.80
2018-11-13T19:51:21.904Z,1021.81
2018-11-13T19:52:22.516Z,1021.87
2018-11-13T19:53:23.229Z,1021.87
2018-11-13T19:54:23.851Z,1021.87
2018-11-13T19:55:24.507Z,1021.89
2018-11-13T19:56:25.220Z,1021.91
2018-11-13T19:57:25.744Z,1021.91
2018-11-13T19:58:26.493Z,1021.96
2018-11-13T19:59:27.104Z,1021.96
2018-11-13T20:00:27.756Z,1021.96
2018-11-13T20:01:28.462Z,1021.98
2018-11-13T20:02:29.053Z,1021.95
2018-11-13T20:03:29.739Z,1022.03
2018-11-13T20:04:30.707Z,1022.00
2018-11-13T20:05:31.014Z,1021.93
2018-11-13T20:06:31.751Z,1021.97
2018-11-13T20:07:32.302Z,1022.03
2018-11-13T20:08:32.950Z,1022.04
2018-11-13T20:09:33.635Z,1022.05
2018-11-13T20:10:34.409Z,1022.04
2018-11-13T20:11:34.900Z,1022.04
2018-11-13T20:12:35.576Z,1022.03
2018-11-13T20:13:36.205Z,1022.05
2018-11-13T20:14:36.970Z,1022.05
2018-11-13T20:15:37.533Z,1022.04
2018-11-13T20:16:38.197Z,1022.05
2018-11-13T20:17:38.822Z,1022.08
2018-11-13T20:18:39.541Z,1022.06
2018-11-13T20:19:40.213Z,1022.07
2018-11-13T20:20:40.771Z,1022.10
2018-11-13T20:21:41.492Z,1022.14
2018-11-13T20:22:42.082Z,1022.10
2018-11-13T20:23:42.837Z,1022.12
2018-11-13T20:24:43.507Z,1022.11
2018-11-13T20:25:44.127Z,1022.13
2018-11-13T20:26:44.722Z,1022.10
2018-11-13T20:27:45.388Z,1022.15
2018-11-13T20:28:46.051Z,1022.15
2018-11-13T20:29:46.678Z,1022.14
2018-11-13T20:30:47.295Z,1022.16
2018-11-13T20:31:47.979Z,1022.13
2018-11-13T20:32:48.581Z,1022.17